createdAt,value
2018-11-04T00:01:58.938Z,2.60
2018-11-04T00:06:49.888Z,2.60
2018-11-04T00:11:40.900Z,2.60
2018-11-04T00:16:32.613Z,2.50
2018-11-04T00:21:23.584Z,2.50
2018-11-04T00:26:14.500Z,2.50
2018-11-04T00:31:05.527Z,2.60
2018-11-04T00:35:56.456Z,2.60
2018-11-04T00:40:47.440Z,2.60
2018-11-04T00:45:38.459Z,2.70
2018-11-04T00:50:29.412Z,2.70
2018-11-04T00:55:20.401Z,2.70
2018-11-04T01:00:11.389Z,2.70
2018-11-04T01:05:02.374Z,2.80
2018-11-04T01:09:53.351Z,2.80
2018-11-04T01:14:44.350Z,2.80
2018-11-04T01:19:35.264Z,2.80
2018-11-04T01:24:26.250Z,2.90
2018-11-04T01:29:17.290Z,2.90
2018-11-04T01:34:08.152Z,2.90
2018-11-04T01:38:59.155Z,3.00
2018-11-04T01:43:50.124Z,3.00
2018-11-04T01:48:41.134Z,3.10
2018-11-04T01:53:32.103Z,3.10
2018-11-04T01:58:23.826Z,3.20
2018-11-04T02:03:15.558Z,3.30
2018-11-04T02:08:06.501Z,3.20
2018-11-04T02:12:57.388Z,3.30
2018-11-04T02:17:48.407Z,3.40
2018-11-04T02:22:39.401Z,3.50
2018-11-04T02:27:30.376Z,3.50
2018-11-04T02:32:22.171Z,3.70
2018-11-04T02:37:13.193Z,3.60
2018-11-04T02:42:04.319Z,3.70
2018-11-04T02:46:56.042Z,3.90
2018-11-04T02:51:46.971Z,3.90
2018-11-04T02:56:38.625Z,4.00
2018-11-04T03:01:29.557Z,4.10
2018-11-04T03:06:20.511Z,4.10
2018-11-04T03:11:11.417Z,4.20
2018-11-04T03:16:03.091Z,4.40
2018-11-04T03:20:54.016Z,4.40
2018-11-04T03:25:44.917Z,4.50
2018-11-04T03:30:36.563Z,4.60
2018-11-04T03:35:27.461Z,4.60
2018-11-04T03:40:19.103Z,4.80
2018-11-04T03:45:10.064Z,4.80
2018-11-04T03:50:01.724Z,5.10
2018-11-04T03:54:52.658Z,5.00
2018-11-04T03:59:43.674Z,5.20
2018-11-04T04:04:34.601Z,5.30
2018-11-04T04:09:26.249Z,5.70
2018-11-04T04:14:17.166Z,5.60
2018-11-04T04:19:08.056Z,5.90
2018-11-04T04:23:58.986Z,6.00
2018-11-04T04:28:49.890Z,6.20
2018-11-04T04:33:40.797Z,6.30
2018-11-04T04:38:32.443Z,6.50
2018-11-04T04:43:23.349Z,6.50
2018-11-04T04:48:15.016Z,6.70
2018-11-04T04:53:05.943Z,6.70
2018-11-04T04:57:56.853Z,6.80
2018-11-04T05:02:47.779Z,6.90
2018-11-04T05:07:38.683Z,7.00
2018-11-04T05:12:29.668Z,7.10
2018-11-04T05:17:20.600Z,7.20
2018-11-04T05:22:11.500Z,7.30
2018-11-04T05:27:02.410Z,7.40
2018-11-04T05:31:53.318Z,7.40
2018-11-04T05:36:44.225Z,7.50
2018-11-04T05:41:35.152Z,7.60
2018-11-04T05:46:26.052Z,7.60
2018-11-04T05:51:16.963Z,7.70
2018-11-04T05:56:07.909Z,7.80
2018-11-04T06:00:58.797Z,7.80
2018-11-04T06:05:49.696Z,7.90
2018-11-04T06:10:40.593Z,7.90
2018-11-04T06:15:31.492Z,8.00
2018-11-04T06:20:22.410Z,8.00
2018-11-04T06:25:13.357Z,8.10
2018-11-04T06:30:04.243Z,8.10
2018-11-04T06:34:55.140Z,8.10
2018-11-04T06:39:46.784Z,8.20
2018-11-04T06:44:37.691Z,8.20
2018-11-04T06:49:28.604Z,8.20
2018-11-04T06:54:19.526Z,8.30
2018-11-04T06:59:10.448Z,8.30
2018-11-04T07:04:05.188Z,8.30
2018-11-04T07:08:56.110Z,8.30
2018-11-04T07:13:47.000Z,8.40
2018-11-04T07:18:38.645Z,8.50
2018-11-04T07:23:29.546Z,8.40
2018-11-04T07:28:20.472Z,8.50
2018-11-04T07:33:11.371Z,8.50
2018-11-04T07:38:02.278Z,8.60
2018-11-04T07:42:53.202Z,8.60
2018-11-04T07:47:44.144Z,8.70
2018-11-04T07:52:35.058Z,8.70
2018-11-04T07:57:26.003Z,8.70
2018-11-04T08:02:16.892Z,8.80
2018-11-04T08:07:07.783Z,8.80
2018-11-04T08:11:58.698Z,8.90
2018-11-04T08:16:49.622Z,8.90
2018-11-04T08:21:40.545Z,9.00
2018-11-04T08:26:31.500Z,9.00
2018-11-04T08:31:23.157Z,9.10
2018-11-04T08:36:14.048Z,9.10
2018-11-04T08:41:05.015Z,9.20
2018-11-04T08:45:56.079Z,9.30
2018-11-04T08:50:46.870Z,9.30
2018-11-04T08:55:37.773Z,9.40
2018-11-04T09:00:28.754Z,9.40
2018-11-04T09:05:19.672Z,9.50
2018-11-04T09:10:10.602Z,9.50
2018-11-04T09:15:01.501Z,9.60
2018-11-04T09:19:52.441Z,9.60
2018-11-04T09:24:44.080Z,9.80
2018-11-04T09:29:35.065Z,9.70
2018-11-04T09:34:25.957Z,9.80
2018-11-04T09:39:16.869Z,9.90
2018-11-04T09:44:07.798Z,10.00
2018-11-04T09:48:58.747Z,10.00
2018-11-04T09:53:49.676Z,10.10
2018-11-04T09:58:40.574Z,10.20
2018-11-04T10:03:31.491Z,10.20
2018-11-04T10:08:22.554Z,10.30
2018-11-04T10:13:13.501Z,10.30
2018-11-04T10:18:04.368Z,10.40
2018-11-04T10:22:55.280Z,10.40
2018-11-04T10:27:46.920Z,10.50
2018-11-04T10:32:38.674Z,10.60
2018-11-04T10:37:29.608Z,10.60
2018-11-04T10:42:20.592Z,10.60
2018-11-04T10:47:12.225Z,10.70
2018-11-04T10:52:03.132Z,10.60
2018-11-04T10:56:54.060Z,10.70
2018-11-04T11:01:44.948Z,10.80
2018-11-04T11:06:35.847Z,10.80
2018-11-04T11:11:27.534Z,10.90
2018-11-04T11:16:19.177Z,10.90
2018-11-04T11:21:10.107Z,10.90
2018-11-04T11:26:01.830Z,11.00
2018-11-04T11:30:52.772Z,11.00
2018-11-04T11:35:43.707Z,11.00
2018-11-04T11:40:34.615Z,11.00
2018-11-04T11:45:25.504Z,11.10
2018-11-04T11:50:16.404Z,11.10
2018-11-04T11:55:07.323Z,11.20
2018-11-04T11:59:58.246Z,11.10
2018-11-04T12:04:49.906Z,11.20
2018-11-04T12:09:40.816Z,11.20
2018-11-04T12:14:31.758Z,11.20
2018-11-04T12:19:22.699Z,11.20
2018-11-04T12:24:14.336Z,11.30
2018-11-04T12:29:05.456Z,11.20
2018-11-04T12:33:57.092Z,11.30
2018-11-04T12:38:47.994Z,11.30
2018-11-04T12:43:38.909Z,11.30
2018-11-04T12:48:30.535Z,11.30
2018-11-04T12:53:21.489Z,11.30
2018-11-04T12:58:12.385Z,11.40
2018-11-04T13:03:03.361Z,11.40
2018-11-04T13:07:54.265Z,11.40
2018-11-04T13:12:45.212Z,11.40
2018-11-04T13:17:36.868Z,11.40
2018-11-04T13:22:27.844Z,11.40
2018-11-04T13:27:18.840Z,11.40
2018-11-04T13:32:11.288Z,11.40
2018-11-04T13:37:03.026Z,11.40
2018-11-04T13:41:53.960Z,11.40
2018-11-04T13:46:45.599Z,11.40
2018-11-04T13:51:36.555Z,11.40
2018-11-04T13:56:27.478Z,11.40
2018-11-04T14:01:20.305Z,11.40
2018-11-04T14:06:11.214Z,11.40
2018-11-04T14:11:02.113Z,11.40
2018-11-04T14:15:53.012Z,11.20
2018-11-04T14:20:43.935Z,11.30
2018-11-04T14:25:36.320Z,11.30
2018-11-04T14:30:27.254Z,11.30
2018-11-04T14:35:18.963Z,11.30
2018-11-04T14:40:09.853Z,11.30
2018-11-04T14:45:00.799Z,11.30
2018-11-04T14:49:52.461Z,11.20
2018-11-04T14:54:43.402Z,11.20
2018-11-04T14:59:34.321Z,11.20
2018-11-04T15:04:25.244Z,11.20
2018-11-04T15:09:17.025Z,11.10
2018-11-04T15:14:07.942Z,11.10
2018-11-04T15:18:58.877Z,11.10
2018-11-04T15:23:49.784Z,11.10
2018-11-04T15:28:40.691Z,11.10
2018-11-04T15:33:31.572Z,11.10
2018-11-04T15:38:23.227Z,11.00
2018-11-04T15:43:14.312Z,11.00
2018-11-04T15:48:05.217Z,11.00
2018-11-04T15:52:56.128Z,11.00
2018-11-04T15:57:47.063Z,11.00
2018-11-04T16:02:38.054Z,11.00
2018-11-04T16:07:30.464Z,11.00
2018-11-04T16:12:21.443Z,10.90
2018-11-04T16:17:12.345Z,11.00
2018-11-04T16:22:03.231Z,11.00
2018-11-04T16:26:54.202Z,10.90
2018-11-04T16:31:45.173Z,10.90
2018-11-04T16:36:36.235Z,10.90
2018-11-04T16:41:27.144Z,10.90
2018-11-04T16:46:19.523Z,10.80
2018-11-04T16:51:10.449Z,10.80
2018-11-04T16:56:02.203Z,10.80
2018-11-04T17:00:53.086Z,10.80
2018-11-04T17:05:44.248Z,10.80
2018-11-04T17:10:35.693Z,10.80
2018-11-04T17:15:27.415Z,10.80
2018-11-04T17:20:18.372Z,10.80
2018-11-04T17:25:10.021Z,10.80
2018-11-04T17:30:00.981Z,10.70
2018-11-04T17:34:51.905Z,10.80
2018-11-04T17:39:43.558Z,10.70
2018-11-04T17:44:34.565Z,10.70
2018-11-04T17:49:25.479Z,10.70
2018-11-04T17:54:17.264Z,10.80
2018-11-04T17:59:08.070Z,10.80
2018-11-04T18:03:59.026Z,10.70
2018-11-04T18:08:49.986Z,10.80
2018-11-04T18:13:40.946Z,10.80
2018-11-04T18:18:31.809Z,10.80
2018-11-04T18:23:22.734Z,10.80
2018-11-04T18:28:13.632Z,10.80
2018-11-04T18:33:04.620Z,10.80
2018-11-04T18:37:55.545Z,10.80
2018-11-04T18:42:47.205Z,10.80
2018-11-04T18:47:38.189Z,10.80
2018-11-04T18:52:29.244Z,10.80
2018-11-04T18:57:20.114Z,10.80
2018-11-04T19:02:11.112Z,10.80
2018-11-04T19:07:02.020Z,10.80
2018-11-04T19:11:53.006Z,10.80
2018-11-04T19:16:43.890Z,10.80
2018-11-04T19:21:34.850Z,10.80
2018-11-04T19:26:25.776Z,10.80
2018-11-04T19:31:16.734Z,10.90
2018-11-04T19:36:08.342Z,10.90
2018-11-04T19:40:59.285Z,10.80
2018-11-04T19:45:50.240Z,10.80
2018-11-04T19:50:41.877Z,10.90
2018-11-04T19:55:32.781Z,10.90
2018-11-04T20:00:24.435Z,10.90
2018-11-04T20:05:15.454Z,10.90
2018-11-04T20:10:07.013Z,10.90
2018-11-04T20:14:57.921Z,10.90
2018-11-04T20:20:07.883Z,10.90
2018-11-04T20:24:58.661Z,10.90
2018-11-04T20:29:49.595Z,11.00
2018-11-04T20:34:40.515Z,11.00
2018-11-04T20:39:31.426Z,10.90
2018-11-04T20:44:22.332Z,10.90
2018-11-04T20:54:31.067Z,10.90
2018-11-04T20:59:21.978Z,11.00
2018-11-04T21:04:12.906Z,11.00
2018-11-04T21:09:03.809Z,11.00
2018-11-04T21:13:54.726Z,11.00
2018-11-04T21:18:45.662Z,11.00
2018-11-04T21:23:36.553Z,11.00
2018-11-04T21:28:27.594Z,11.00
2018-11-04T21:33:19.142Z,11.00
2018-11-04T21:38:10.067Z,10.90
2018-11-04T21:43:01.155Z,10.90
2018-11-04T21:47:52.681Z,10.90
2018-11-04T21:52:43.604Z,10.90
2018-11-04T21:57:35.248Z,11.00
2018-11-04T22:02:26.258Z,10.90
2018-11-04T22:07:17.103Z,11.00
2018-11-04T22:12:08.003Z,11.00
2018-11-04T22:16:59.661Z,11.00
2018-11-04T22:21:50.570Z,10.90
2018-11-04T22:26:42.243Z,10.90
2018-11-04T22:31:33.153Z,10.90
2018-11-04T22:36:24.190Z,11.00
2018-11-04T22:41:15.129Z,11.00
2018-11-04T22:46:06.058Z,11.00
2018-11-04T22:50:57.710Z,11.00
2018-11-04T22:55:48.673Z,11.00
2018-11-04T23:00:39.673Z,11.00
2018-11-04T23:05:31.380Z,11.00
2018-11-04T23:10:22.431Z,11.00
2018-11-04T23:15:13.375Z,11.00
2018-11-04T23:20:04.273Z,11.10
2018-11-04T23:24:55.184Z,11.00
2018-11-04T23:29:46.130Z,11.00
2018-11-04T23:34:37.783Z,11.00
2018-11-04T23:39:28.718Z,11.00
2018-11-04T23:44:19.657Z,11.00
2018-11-04T23:49:11.358Z,11.00
2018-11-04T23:54:02.254Z,11.00
2018-11-04T23:58:53.167Z,11.00
